sensor_id;sensor_type;location;lat;lon;timestamp;temperature;humidity
5196;DHT22;2617;51.006;12.436;2023-03-14T00:02:32;9.70;99.90
5196;DHT22;2617;51.006;12.436;2023-03-14T00:07:34;9.70;99.90
5196;DHT22;2617;51.006;12.436;2023-03-14T00:12:35;9.70;99.90
5196;DHT22;2617;51.006;12.436;2023-03-14T00:17:37;9.70;99.90
5196;DHT22;2617;51.006;12.436;2023-03-14T00:22:40;9.60;99.90
5196;DHT22;2617;51.006;12.436;2023-03-14T00:27:42;9.50;99.90
5196;DHT22;2617;51.006;12.436;2023-03-14T00:32:44;9.50;99.90
5196;DHT22;2617;51.006;12.436;2023-03-14T00:37:46;9.50;99.90
5196;DHT22;2617;51.006;12.436;2023-03-14T00:42:48;9.50;99.90
5196;DHT22;2617;51.006;12.436;2023-03-14T00:47:49;9.50;99.90
5196;DHT22;2617;51.006;12.436;2023-03-14T00:52:51;9.60;99.90
5196;DHT22;2617;51.006;12.436;2023-03-14T00:57:53;9.70;99.90
5196;DHT22;2617;51.006;12.436;2023-03-14T01:02:55;9.80;99.90
5196;DHT22;2617;51.006;12.436;2023-03-14T01:07:57;9.90;99.90
5196;DHT22;2617;51.006;12.436;2023-03-14T01:13:00;10.00;99.90
5196;DHT22;2617;51.006;12.436;2023-03-14T01:18:01;10.00;99.90
5196;DHT22;2617;51.006;12.436;2023-03-14T01:23:04;10.10;99.90
5196;DHT22;2617;51.006;12.436;2023-03-14T01:28:06;10.10;99.90
5196;DHT22;2617;51.006;12.436;2023-03-14T01:33:08;10.20;99.90
5196;DHT22;2617;51.006;12.436;2023-03-14T01:38:10;10.10;99.90
5196;DHT22;2617;51.006;12.436;2023-03-14T01:43:14;10.10;99.90
5196;DHT22;2617;51.006;12.436;2023-03-14T01:48:14;10.10;99.90
5196;DHT22;2617;51.006;12.436;2023-03-14T01:53:16;10.10;99.90
5196;DHT22;2617;51.006;12.436;2023-03-14T01:58:18;10.00;99.90
5196;DHT22;2617;51.006;12.436;2023-03-14T02:03:20;10.00;99.90
5196;DHT22;2617;51.006;12.436;2023-03-14T02:08:23;9.90;99.90
5196;DHT22;2617;51.006;12.436;2023-03-14T02:13:25;9.90;99.90
5196;DHT22;2617;51.006;12.436;2023-03-14T02:18:29;9.80;99.90
5196;DHT22;2617;51.006;12.436;2023-03-14T02:23:58;9.70;99.90
5196;DHT22;2617;51.006;12.436;2023-03-14T02:29:01;9.70;99.90
5196;DHT22;2617;51.006;12.436;2023-03-14T02:34:03;9.60;99.90
5196;DHT22;2617;51.006;12.436;2023-03-14T02:39:12;9.60;99.90
5196;DHT22;2617;51.006;12.436;2023-03-14T02:44:12;9.60;99.90
5196;DHT22;2617;51.006;12.436;2023-03-14T02:49:14;9.60;99.90
5196;DHT22;2617;51.006;12.436;2023-03-14T02:54:16;9.50;99.90
5196;DHT22;2617;51.006;12.436;2023-03-14T02:59:17;9.50;99.90
5196;DHT22;2617;51.006;12.436;2023-03-14T03:04:19;9.50;99.90
5196;DHT22;2617;51.006;12.436;2023-03-14T03:09:21;9.50;99.90
5196;DHT22;2617;51.006;12.436;2023-03-14T03:14:23;9.60;99.90
5196;DHT22;2617;51.006;12.436;2023-03-14T03:19:25;9.60;99.90
5196;DHT22;2617;51.006;12.436;2023-03-14T03:24:27;9.70;99.90
5196;DHT22;2617;51.006;12.436;2023-03-14T03:29:29;9.80;99.90
5196;DHT22;2617;51.006;12.436;2023-03-14T03:34:31;9.80;99.90
5196;DHT22;2617;51.006;12.436;2023-03-14T03:39:33;9.80;99.90
5196;DHT22;2617;51.006;12.436;2023-03-14T03:44:35;9.90;99.90
5196;DHT22;2617;51.006;12.436;2023-03-14T03:49:37;9.70;99.90
5196;DHT22;2617;51.006;12.436;2023-03-14T03:54:39;9.80;99.90
5196;DHT22;2617;51.006;12.436;2023-03-14T03:59:41;9.70;99.90
5196;DHT22;2617;51.006;12.436;2023-03-14T04:04:42;9.70;99.90
5196;DHT22;2617;51.006;12.436;2023-03-14T04:09:44;9.70;99.90
5196;DHT22;2617;51.006;12.436;2023-03-14T04:14:47;9.70;99.90
5196;DHT22;2617;51.006;12.436;2023-03-14T04:19:48;9.70;99.90
5196;DHT22;2617;51.006;12.436;2023-03-14T04:24:50;9.70;99.90
5196;DHT22;2617;51.006;12.436;2023-03-14T04:29:52;9.70;99.90
5196;DHT22;2617;51.006;12.436;2023-03-14T04:34:53;9.70;99.90
5196;DHT22;2617;51.006;12.436;2023-03-14T04:39:55;9.70;99.90
5196;DHT22;2617;51.006;12.436;2023-03-14T04:44:57;9.70;99.90
5196;DHT22;2617;51.006;12.436;2023-03-14T04:49:59;9.60;99.90
5196;DHT22;2617;51.006;12.436;2023-03-14T04:55:01;9.50;99.90
5196;DHT22;2617;51.006;12.436;2023-03-14T05:00:03;9.50;99.90
5196;DHT22;2617;51.006;12.436;2023-03-14T05:05:07;9.40;99.90
5196;DHT22;2617;51.006;12.436;2023-03-14T05:10:10;9.30;99.90
5196;DHT22;2617;51.006;12.436;2023-03-14T05:15:11;9.40;99.90
5196;DHT22;2617;51.006;12.436;2023-03-14T05:20:13;9.40;99.90
5196;DHT22;2617;51.006;12.436;2023-03-14T05:25:15;9.40;99.90
5196;DHT22;2617;51.006;12.436;2023-03-14T05:30:17;9.50;99.90
5196;DHT22;2617;51.006;12.436;2023-03-14T05:35:19;9.50;99.90
5196;DHT22;2617;51.006;12.436;2023-03-14T05:40:21;9.50;99.90
5196;DHT22;2617;51.006;12.436;2023-03-14T05:45:23;9.60;99.90
5196;DHT22;2617;51.006;12.436;2023-03-14T05:50:24;9.50;99.90
5196;DHT22;2617;51.006;12.436;2023-03-14T05:55:27;9.40;99.90
5196;DHT22;2617;51.006;12.436;2023-03-14T06:00:28;9.40;99.90
5196;DHT22;2617;51.006;12.436;2023-03-14T06:05:31;9.40;99.90
5196;DHT22;2617;51.006;12.436;2023-03-14T06:10:34;9.50;99.90
5196;DHT22;2617;51.006;12.436;2023-03-14T06:15:34;9.60;99.90
5196;DHT22;2617;51.006;12.436;2023-03-14T06:20:36;9.60;99.90
5196;DHT22;2617;51.006;12.436;2023-03-14T06:25:39;9.70;99.90
5196;DHT22;2617;51.006;12.436;2023-03-14T06:30:40;9.70;99.90
5196;DHT22;2617;51.006;12.436;2023-03-14T06:35:42;9.70;99.90
5196;DHT22;2617;51.006;12.436;2023-03-14T06:40:44;9.80;99.90
5196;DHT22;2617;51.006;12.436;2023-03-14T06:45:46;9.80;99.90
5196;DHT22;2617;51.006;12.436;2023-03-14T06:50:49;9.90;99.90
5196;DHT22;2617;51.006;12.436;2023-03-14T06:55:50;9.90;99.90
5196;DHT22;2617;51.006;12.436;2023-03-14T07:00:52;9.90;99.90
5196;DHT22;2617;51.006;12.436;2023-03-14T07:05:54;10.00;99.90
5196;DHT22;2617;51.006;12.436;2023-03-14T07:10:56;10.10;99.90
5196;DHT22;2617;51.006;12.436;2023-03-14T07:15:59;10.20;99.90
5196;DHT22;2617;51.006;12.436;2023-03-14T07:21:00;10.20;99.90
5196;DHT22;2617;51.006;12.436;2023-03-14T07:26:02;10.30;99.90
5196;DHT22;2617;51.006;12.436;2023-03-14T07:31:05;10.50;99.90
5196;DHT22;2617;51.006;12.436;2023-03-14T07:36:07;10.50;99.90
5196;DHT22;2617;51.006;12.436;2023-03-14T07:41:09;10.60;99.90
5196;DHT22;2617;51.006;12.436;2023-03-14T07:46:12;10.90;99.90
5196;DHT22;2617;51.006;12.436;2023-03-14T07:51:14;11.10;99.90
5196;DHT22;2617;51.006;12.436;2023-03-14T07:56:16;11.10;99.90
5196;DHT22;2617;51.006;12.436;2023-03-14T08:01:18;11.30;99.90
5196;DHT22;2617;51.006;12.436;2023-03-14T08:06:19;11.60;99.90
5196;DHT22;2617;51.006;12.436;2023-03-14T08:11:22;12.00;99.90
5196;DHT22;2617;51.006;12.436;2023-03-14T08:16:24;12.00;99.90
5196;DHT22;2617;51.006;12.436;2023-03-14T08:21:26;12.10;99.90
5196;DHT22;2617;51.006;12.436;2023-03-14T08:26:28;12.00;99.90
5196;DHT22;2617;51.006;12.436;2023-03-14T08:31:30;12.00;99.90
5196;DHT22;2617;51.006;12.436;2023-03-14T08:36:31;11.90;99.90
5196;DHT22;2617;51.006;12.436;2023-03-14T08:41:34;11.80;99.90
5196;DHT22;2617;51.006;12.436;2023-03-14T08:46:36;11.80;99.90
5196;DHT22;2617;51.006;12.436;2023-03-14T08:51:38;11.80;99.90
5196;DHT22;2617;51.006;12.436;2023-03-14T08:56:40;11.90;99.90
5196;DHT22;2617;51.006;12.436;2023-03-14T09:01:42;12.00;99.90
5196;DHT22;2617;51.006;12.436;2023-03-14T09:06:43;12.10;99.90
5196;DHT22;2617;51.006;12.436;2023-03-14T09:11:45;12.10;99.90
5196;DHT22;2617;51.006;12.436;2023-03-14T09:16:48;12.00;99.90
5196;DHT22;2617;51.006;12.436;2023-03-14T09:21:49;11.90;99.90
5196;DHT22;2617;51.006;12.436;2023-03-14T09:26:51;12.10;99.90
5196;DHT22;2617;51.006;12.436;2023-03-14T09:31:53;12.30;99.90
5196;DHT22;2617;51.006;12.436;2023-03-14T09:36:54;12.60;99.90
5196;DHT22;2617;51.006;12.436;2023-03-14T09:41:57;12.50;99.90
5196;DHT22;2617;51.006;12.436;2023-03-14T09:47:04;12.50;99.90
5196;DHT22;2617;51.006;12.436;2023-03-14T09:52:08;12.50;99.90
5196;DHT22;2617;51.006;12.436;2023-03-14T09:57:08;12.70;99.90
5196;DHT22;2617;51.006;12.436;2023-03-14T10:02:14;12.90;99.90
5196;DHT22;2617;51.006;12.436;2023-03-14T10:07:16;13.10;99.90
5196;DHT22;2617;51.006;12.436;2023-03-14T10:12:17;13.10;99.90
5196;DHT22;2617;51.006;12.436;2023-03-14T10:17:19;13.90;99.90
5196;DHT22;2617;51.006;12.436;2023-03-14T10:22:21;13.80;99.90
5196;DHT22;2617;51.006;12.436;2023-03-14T10:27:27;14.50;99.90
5196;DHT22;2617;51.006;12.436;2023-03-14T10:32:29;14.30;99.90
5196;DHT22;2617;51.006;12.436;2023-03-14T10:37:29;14.20;99.90
5196;DHT22;2617;51.006;12.436;2023-03-14T10:42:32;13.90;99.90
5196;DHT22;2617;51.006;12.436;2023-03-14T10:47:33;13.50;99.90
5196;DHT22;2617;51.006;12.436;2023-03-14T10:52:36;13.40;99.90
5196;DHT22;2617;51.006;12.436;2023-03-14T10:57:40;13.30;99.90
5196;DHT22;2617;51.006;12.436;2023-03-14T11:02:46;13.30;99.90
5196;DHT22;2617;51.006;12.436;2023-03-14T11:07:44;13.20;99.90
5196;DHT22;2617;51.006;12.436;2023-03-14T11:12:55;13.30;99.90
5196;DHT22;2617;51.006;12.436;2023-03-14T11:23:16;12.70;99.90
5196;DHT22;2617;51.006;12.436;2023-03-14T11:33:53;12.70;99.90
5196;DHT22;2617;51.006;12.436;2023-03-14T11:38:52;13.10;99.90
5196;DHT22;2617;51.006;12.436;2023-03-14T11:43:55;13.20;99.90
5196;DHT22;2617;51.006;12.436;2023-03-14T11:54:34;13.20;99.90
5196;DHT22;2617;51.006;12.436;2023-03-14T12:10:41;13.40;99.90
5196;DHT22;2617;51.006;12.436;2023-03-14T12:15:46;13.80;99.90
5196;DHT22;2617;51.006;12.436;2023-03-14T12:20:49;14.40;99.90
5196;DHT22;2617;51.006;12.436;2023-03-14T12:30:49;14.60;99.90
5196;DHT22;2617;51.006;12.436;2023-03-14T12:35:52;14.50;99.90
5196;DHT22;2617;51.006;12.436;2023-03-14T12:41:03;14.40;99.90
5196;DHT22;2617;51.006;12.436;2023-03-14T12:46:20;14.20;99.90
5196;DHT22;2617;51.006;12.436;2023-03-14T12:51:29;14.20;99.90
5196;DHT22;2617;51.006;12.436;2023-03-14T12:56:40;14.10;99.90
5196;DHT22;2617;51.006;12.436;2023-03-14T13:01:56;14.10;99.90
5196;DHT22;2617;51.006;12.436;2023-03-14T13:06:58;14.10;99.90
5196;DHT22;2617;51.006;12.436;2023-03-14T13:12:03;14.40;99.90
5196;DHT22;2617;51.006;12.436;2023-03-14T13:17:09;14.70;99.90
5196;DHT22;2617;51.006;12.436;2023-03-14T13:22:17;14.60;99.90
5196;DHT22;2617;51.006;12.436;2023-03-14T13:27:18;14.30;99.90
5196;DHT22;2617;51.006;12.436;2023-03-14T13:32:21;14.10;99.90
5196;DHT22;2617;51.006;12.436;2023-03-14T13:37:24;14.20;99.90
5196;DHT22;2617;51.006;12.436;2023-03-14T13:42:26;14.20;99.90
5196;DHT22;2617;51.006;12.436;2023-03-14T13:47:29;14.60;99.90
5196;DHT22;2617;51.006;12.436;2023-03-14T13:52:36;14.60;99.90
5196;DHT22;2617;51.006;12.436;2023-03-14T13:57:44;14.70;99.90
5196;DHT22;2617;51.006;12.436;2023-03-14T14:02:47;14.50;99.90
5196;DHT22;2617;51.006;12.436;2023-03-14T14:07:49;14.50;99.90
5196;DHT22;2617;51.006;12.436;2023-03-14T14:12:55;14.50;99.90
5196;DHT22;2617;51.006;12.436;2023-03-14T14:17:57;14.70;99.90
5196;DHT22;2617;51.006;12.436;2023-03-14T14:22:59;14.70;99.90
5196;DHT22;2617;51.006;12.436;2023-03-14T14:28:14;14.10;99.90
5196;DHT22;2617;51.006;12.436;2023-03-14T14:33:11;13.70;99.90
5196;DHT22;2617;51.006;12.436;2023-03-14T14:38:12;13.60;99.90
5196;DHT22;2617;51.006;12.436;2023-03-14T14:43:18;13.50;99.90
5196;DHT22;2617;51.006;12.436;2023-03-14T14:48:22;13.40;99.90
5196;DHT22;2617;51.006;12.436;2023-03-14T14:53:30;13.30;99.90
5196;DHT22;2617;51.006;12.436;2023-03-14T14:58:35;13.10;99.90
5196;DHT22;2617;51.006;12.436;2023-03-14T15:03:37;13.00;99.90
5196;DHT22;2617;51.006;12.436;2023-03-14T15:08:39;12.70;99.90
5196;DHT22;2617;51.006;12.436;2023-03-14T15:13:42;12.30;99.90
5196;DHT22;2617;51.006;12.436;2023-03-14T15:18:45;12.10;99.90
5196;DHT22;2617;51.006;12.436;2023-03-14T15:23:47;12.00;99.90
5196;DHT22;2617;51.006;12.436;2023-03-14T15:28:50;11.50;99.90
5196;DHT22;2617;51.006;12.436;2023-03-14T15:33:53;11.20;99.90
5196;DHT22;2617;51.006;12.436;2023-03-14T15:38:56;11.20;99.90
5196;DHT22;2617;51.006;12.436;2023-03-14T15:43:58;10.70;99.90
5196;DHT22;2617;51.006;12.436;2023-03-14T15:49:00;9.40;99.90
5196;DHT22;2617;51.006;12.436;2023-03-14T15:54:03;8.50;99.90
5196;DHT22;2617;51.006;12.436;2023-03-14T15:59:06;7.00;99.90
5196;DHT22;2617;51.006;12.436;2023-03-14T16:04:10;6.90;99.90
5196;DHT22;2617;51.006;12.436;2023-03-14T16:09:12;6.10;99.90
5196;DHT22;2617;51.006;12.436;2023-03-14T16:14:14;5.40;99.90
5196;DHT22;2617;51.006;12.436;2023-03-14T16:19:17;5.10;99.90
5196;DHT22;2617;51.006;12.436;2023-03-14T16:24:19;4.90;99.90
5196;DHT22;2617;51.006;12.436;2023-03-14T16:29:22;4.60;99.90
5196;DHT22;2617;51.006;12.436;2023-03-14T16:34:25;4.20;99.90
5196;DHT22;2617;51.006;12.436;2023-03-14T16:39:27;4.20;99.90
5196;DHT22;2617;51.006;12.436;2023-03-14T16:44:30;4.00;99.90
5196;DHT22;2617;51.006;12.436;2023-03-14T16:49:32;3.80;99.90
5196;DHT22;2617;51.006;12.436;2023-03-14T16:54:35;3.50;99.90
5196;DHT22;2617;51.006;12.436;2023-03-14T16:59:37;3.30;99.90
5196;DHT22;2617;51.006;12.436;2023-03-14T17:04:40;3.00;99.90
5196;DHT22;2617;51.006;12.436;2023-03-14T17:09:43;2.90;99.90
5196;DHT22;2617;51.006;12.436;2023-03-14T17:14:46;2.80;99.90
5196;DHT22;2617;51.006;12.436;2023-03-14T17:19:48;2.70;99.90
5196;DHT22;2617;51.006;12.436;2023-03-14T17:24:51;2.70;99.90
5196;DHT22;2617;51.006;12.436;2023-03-14T17:29:54;2.70;99.90
5196;DHT22;2617;51.006;12.436;2023-03-14T17:34:56;2.70;99.90
5196;DHT22;2617;51.006;12.436;2023-03-14T17:39:59;2.80;99.90
5196;DHT22;2617;51.006;12.436;2023-03-14T17:45:01;2.80;99.90
5196;DHT22;2617;51.006;12.436;2023-03-14T17:50:04;2.90;99.90
5196;DHT22;2617;51.006;12.436;2023-03-14T17:55:07;2.90;99.90
5196;DHT22;2617;51.006;12.436;2023-03-14T18:00:12;3.00;99.90
5196;DHT22;2617;51.006;12.436;2023-03-14T18:05:15;3.10;99.90
5196;DHT22;2617;51.006;12.436;2023-03-14T18:10:17;3.10;99.90
5196;DHT22;2617;51.006;12.436;2023-03-14T18:15:20;3.10;99.90
5196;DHT22;2617;51.006;12.436;2023-03-14T18:20:26;3.20;99.90
5196;DHT22;2617;51.006;12.436;2023-03-14T18:25:28;3.20;99.90
5196;DHT22;2617;51.006;12.436;2023-03-14T18:30:31;3.30;99.90
5196;DHT22;2617;51.006;12.436;2023-03-14T18:35:35;3.30;99.90
5196;DHT22;2617;51.006;12.436;2023-03-14T18:40:36;3.10;99.90
5196;DHT22;2617;51.006;12.436;2023-03-14T18:45:38;2.90;99.90
5196;DHT22;2617;51.006;12.436;2023-03-14T18:50:41;2.90;99.90
5196;DHT22;2617;51.006;12.436;2023-03-14T18:55:44;3.00;99.90
5196;DHT22;2617;51.006;12.436;2023-03-14T19:00:46;3.00;99.90
5196;DHT22;2617;51.006;12.436;2023-03-14T19:05:49;3.10;99.90
5196;DHT22;2617;51.006;12.436;2023-03-14T19:10:53;3.10;99.90
5196;DHT22;2617;51.006;12.436;2023-03-14T19:15:54;3.10;99.90
5196;DHT22;2617;51.006;12.436;2023-03-14T19:21:00;3.10;99.90
5196;DHT22;2617;51.006;12.436;2023-03-14T19:26:05;3.20;99.90
5196;DHT22;2617;51.006;12.436;2023-03-14T19:31:08;3.20;99.90
5196;DHT22;2617;51.006;12.436;2023-03-14T19:36:19;3.20;99.90
5196;DHT22;2617;51.006;12.436;2023-03-14T19:41:23;3.20;99.90
5196;DHT22;2617;51.006;12.436;2023-03-14T19:46:26;3.30;99.90
5196;DHT22;2617;51.006;12.436;2023-03-14T19:51:28;3.30;99.90
5196;DHT22;2617;51.006;12.436;2023-03-14T19:56:31;3.30;99.90
5196;DHT22;2617;51.006;12.436;2023-03-14T20:01:33;3.30;99.90
5196;DHT22;2617;51.006;12.436;2023-03-14T20:06:36;3.30;99.90
5196;DHT22;2617;51.006;12.436;2023-03-14T20:11:39;3.30;99.90
5196;DHT22;2617;51.006;12.436;2023-03-14T20:16:42;3.40;99.90
5196;DHT22;2617;51.006;12.436;2023-03-14T20:21:45;3.30;99.90
5196;DHT22;2617;51.006;12.436;2023-03-14T20:26:47;3.30;99.90
5196;DHT22;2617;51.006;12.436;2023-03-14T20:31:50;3.30;99.90
5196;DHT22;2617;51.006;12.436;2023-03-14T20:36:52;3.30;99.90
5196;DHT22;2617;51.006;12.436;2023-03-14T20:41:55;3.30;99.90
5196;DHT22;2617;51.006;12.436;2023-03-14T20:46:58;3.30;99.90
5196;DHT22;2617;51.006;12.436;2023-03-14T20:52:01;3.30;99.90
5196;DHT22;2617;51.006;12.436;2023-03-14T20:57:03;3.30;99.90
5196;DHT22;2617;51.006;12.436;2023-03-14T21:02:07;3.20;99.90
5196;DHT22;2617;51.006;12.436;2023-03-14T21:07:09;3.20;99.90
5196;DHT22;2617;51.006;12.436;2023-03-14T21:12:11;3.10;99.90
5196;DHT22;2617;51.006;12.436;2023-03-14T21:17:14;3.00;99.90
5196;DHT22;2617;51.006;12.436;2023-03-14T21:22:16;3.00;99.90
5196;DHT22;2617;51.006;12.436;2023-03-14T21:27:19;3.00;99.90
5196;DHT22;2617;51.006;12.436;2023-03-14T21:32:21;2.90;99.90
5196;DHT22;2617;51.006;12.436;2023-03-14T21:37:24;2.80;99.90
5196;DHT22;2617;51.006;12.436;2023-03-14T21:42:26;2.70;99.90
5196;DHT22;2617;51.006;12.436;2023-03-14T21:47:28;2.60;99.90
5196;DHT22;2617;51.006;12.436;2023-03-14T21:52:31;2.60;99.90
5196;DHT22;2617;51.006;12.436;2023-03-14T21:57:33;2.50;99.90
5196;DHT22;2617;51.006;12.436;2023-03-14T22:02:36;2.50;99.90
5196;DHT22;2617;51.006;12.436;2023-03-14T22:07:38;2.30;99.90
5196;DHT22;2617;51.006;12.436;2023-03-14T22:12:41;2.30;99.90
5196;DHT22;2617;51.006;12.436;2023-03-14T22:17:44;2.20;99.90
5196;DHT22;2617;51.006;12.436;2023-03-14T22:22:47;2.20;99.90
5196;DHT22;2617;51.006;12.436;2023-03-14T22:27:49;2.20;99.90
5196;DHT22;2617;51.006;12.436;2023-03-14T22:32:51;2.10;99.90
5196;DHT22;2617;51.006;12.436;2023-03-14T22:37:54;2.10;99.90
5196;DHT22;2617;51.006;12.436;2023-03-14T22:42:57;2.00;99.90
5196;DHT22;2617;51.006;12.436;2023-03-14T22:47:59;2.00;99.90
5196;DHT22;2617;51.006;12.436;2023-03-14T22:53:03;2.10;99.90
5196;DHT22;2617;51.006;12.436;2023-03-14T22:58:05;2.00;99.90
5196;DHT22;2617;51.006;12.436;2023-03-14T23:03:07;2.00;99.90
5196;DHT22;2617;51.006;12.436;2023-03-14T23:08:10;2.10;99.90
5196;DHT22;2617;51.006;12.436;2023-03-14T23:13:12;2.10;99.90
5196;DHT22;2617;51.006;12.436;2023-03-14T23:18:15;2.10;99.90
5196;DHT22;2617;51.006;12.436;2023-03-14T23:23:18;2.20;99.90
5196;DHT22;2617;51.006;12.436;2023-03-14T23:28:21;2.20;99.90
5196;DHT22;2617;51.006;12.436;2023-03-14T23:33:24;2.20;99.90
5196;DHT22;2617;51.006;12.436;2023-03-14T23:38:26;2.20;99.90
5196;DHT22;2617;51.006;12.436;2023-03-14T23:43:29;2.30;99.90
5196;DHT22;2617;51.006;12.436;2023-03-14T23:48:31;2.30;99.90
5196;DHT22;2617;51.006;12.436;2023-03-14T23:53:34;2.30;99.90
5196;DHT22;2617;51.006;12.436;2023-03-14T23:58:37;2.20;99.90
